Time;durP1;ratioP1;P1;durP2;ratioP2;P2;SDS_P1;SDS_P2;PMS_P1;PMS_P2;Temp;Humidity;BMP_temperature;BMP_pressure;BME280_temperature;BME280_humidity;BME280_pressure;Samples;Min_cycle;Max_cycle;Signal;HPM_P1;HPM_P2
2024/01/06 00:02:09;;;;;;;41.40;23.23;;;;;;;6.70;100.00;99350.16;5073459;28;20080;-47
2024/01/06 00:04:37;;;;;;;44.47;24.15;;;;;;;6.88;100.00;99346.41;5073095;28;20504;-46
2024/01/06 00:07:09;;;;;;;44.25;23.90;;;;;;;6.97;100.00;99346.81;5074151;28;20048;-47
2024/01/06 00:09:37;;;;;;;43.13;24.27;;;;;;;6.80;100.00;99335.41;5073109;28;20055;-47
2024/01/06 00:12:06;;;;;;;40.00;22.30;;;;;;;6.83;100.00;99340.50;5073585;28;20044;-48
2024/01/06 00:14:34;;;;;;;41.35;23.30;;;;;;;6.60;100.00;99335.72;5073481;28;20493;-48
2024/01/06 00:17:02;;;;;;;41.58;21.80;;;;;;;6.69;100.00;99337.84;5073727;28;20049;-47
2024/01/06 00:19:31;;;;;;;37.70;22.88;;;;;;;6.75;100.00;99331.31;5074277;28;20071;-46
2024/01/06 00:22:00;;;;;;;43.72;24.17;;;;;;;6.69;100.00;99321.94;5074386;28;20044;-46
2024/01/06 00:24:30;;;;;;;42.30;24.10;;;;;;;6.84;100.00;99328.13;5074052;28;20040;-47
2024/01/06 00:26:58;;;;;;;38.35;22.05;;;;;;;6.75;100.00;99329.50;5073269;28;20071;-47
2024/01/06 00:29:27;;;;;;;40.50;22.50;;;;;;;6.88;100.00;99322.56;5072775;28;20054;-48
2024/01/06 00:31:55;;;;;;;43.42;23.70;;;;;;;7.04;100.00;99330.44;5071753;28;20048;-47
2024/01/06 00:34:23;;;;;;;43.60;24.05;;;;;;;7.15;100.00;99335.09;5072783;28;20040;-47
2024/01/06 00:36:51;;;;;;;40.50;22.52;;;;;;;7.20;100.00;99330.34;5072748;28;20049;-48
2024/01/06 00:39:21;;;;;;;38.13;22.27;;;;;;;7.04;100.00;99327.78;5072573;28;20060;-47
2024/01/06 00:41:51;;;;;;;39.85;22.60;;;;;;;6.97;100.00;99318.50;5072763;28;20052;-46
2024/01/06 00:44:19;;;;;;;40.03;23.08;;;;;;;7.05;100.00;99313.59;5072827;28;20044;-47
2024/01/06 00:46:48;;;;;;;34.95;21.67;;;;;;;7.06;100.00;99320.59;5072585;28;20049;-47
2024/01/06 00:49:16;;;;;;;35.83;21.83;;;;;;;7.11;100.00;99315.00;5072383;28;20554;-47
2024/01/06 00:51:44;;;;;;;37.25;22.15;;;;;;;7.13;100.00;99310.47;5072330;28;20054;-46
2024/01/06 00:54:12;;;;;;;39.78;22.58;;;;;;;7.11;100.00;99313.22;5072506;28;20094;-47
2024/01/06 00:56:42;;;;;;;39.53;21.55;;;;;;;7.05;100.00;99307.44;5072477;28;20050;-47
2024/01/06 00:59:12;;;;;;;39.58;21.75;;;;;;;6.83;100.00;99308.72;5072220;28;20087;-46
2024/01/06 01:01:40;;;;;;;37.97;22.00;;;;;;;6.69;100.00;99308.69;5072070;28;20492;-47
2024/01/06 01:04:09;;;;;;;38.08;22.05;;;;;;;6.68;100.00;99307.00;5071653;28;20047;-48
2024/01/06 01:06:37;;;;;;;36.72;21.55;;;;;;;6.64;100.00;99305.44;5071920;28;20382;-46
2024/01/06 01:09:06;;;;;;;38.28;22.58;;;;;;;6.46;100.00;99309.16;5071763;28;20481;-47
2024/01/06 01:11:34;;;;;;;37.22;21.77;;;;;;;6.48;100.00;99302.88;5072151;28;20464;-47
2024/01/06 01:14:03;;;;;;;36.63;21.33;;;;;;;6.40;100.00;99310.41;5072014;28;20131;-49
2024/01/06 01:16:33;;;;;;;35.60;21.50;;;;;;;6.40;100.00;99304.25;5071739;28;20052;-47
2024/01/06 01:19:02;;;;;;;39.00;21.38;;;;;;;6.57;100.00;99296.19;5071696;28;20052;-47
2024/01/06 01:21:30;;;;;;;35.50;20.67;;;;;;;6.65;100.00;99287.75;5071663;28;20071;-46
2024/01/06 01:23:59;;;;;;;35.85;21.48;;;;;;;6.65;100.00;99288.59;5071688;28;20074;-46
2024/01/06 01:26:27;;;;;;;41.30;22.90;;;;;;;6.37;100.00;99293.81;5071690;28;20095;-45
2024/01/06 01:28:56;;;;;;;38.03;22.73;;;;;;;6.47;100.00;99301.16;5071601;28;20044;-46
2024/01/06 01:31:24;;;;;;;38.88;22.25;;;;;;;6.63;100.00;99293.13;5071186;28;20573;-47
2024/01/06 01:33:54;;;;;;;39.55;22.40;;;;;;;6.71;100.00;99288.25;5071461;28;20405;-46
2024/01/06 01:36:23;;;;;;;38.65;20.90;;;;;;;6.72;100.00;99289.94;5071595;28;20046;-47
2024/01/06 01:38:51;;;;;;;36.45;21.13;;;;;;;6.75;100.00;99305.66;5071396;28;20048;-46
2024/01/06 01:41:19;;;;;;;36.15;20.48;;;;;;;6.71;100.00;99298.84;5071314;28;20048;-48
2024/01/06 01:43:47;;;;;;;36.42;21.38;;;;;;;6.60;100.00;99293.34;5071057;28;20048;-46
2024/01/06 01:46:16;;;;;;;37.28;21.48;;;;;;;6.41;100.00;99285.59;5071167;28;20055;-47
2024/01/06 01:48:44;;;;;;;36.13;20.85;;;;;;;6.33;100.00;99287.84;5071336;28;20040;-47
2024/01/06 01:51:14;;;;;;;39.38;22.13;;;;;;;6.46;100.00;99277.38;5071218;28;20493;-47
2024/01/06 01:53:43;;;;;;;39.53;21.58;;;;;;;6.42;100.00;99268.78;5071189;28;20040;-47
2024/01/06 01:56:12;;;;;;;37.42;22.27;;;;;;;6.55;100.00;99272.38;5071357;28;20040;-47
2024/01/06 01:58:40;;;;;;;34.88;21.08;;;;;;;6.40;100.00;99269.81;5071098;28;20462;-47
2024/01/06 02:01:09;;;;;;;37.20;20.75;;;;;;;6.34;100.00;99273.66;5071230;28;20109;-47
2024/01/06 02:03:38;;;;;;;35.30;21.45;;;;;;;6.43;100.00;99264.31;5071328;28;20041;-47
2024/01/06 02:06:06;;;;;;;35.50;21.63;;;;;;;6.34;100.00;99275.47;5070943;28;20581;-46
2024/01/06 02:08:36;;;;;;;40.38;22.15;;;;;;;6.43;100.00;99264.31;5071139;28;20040;-47
2024/01/06 02:11:04;;;;;;;37.50;21.00;;;;;;;6.41;100.00;99258.28;5070975;28;20068;-48
2024/01/06 02:13:38;;;;;;;34.22;20.48;;;;;;;6.41;100.00;99250.31;5070924;28;20444;-47
2024/01/06 02:16:07;;;;;;;36.42;21.48;;;;;;;6.45;100.00;99265.09;5070899;28;20516;-48
2024/01/06 02:18:35;;;;;;;33.17;20.88;;;;;;;6.31;100.00;99266.75;5071181;28;20045;-48
2024/01/06 02:21:04;;;;;;;36.63;21.20;;;;;;;6.50;100.00;99257.72;5071127;28;20055;-48
2024/01/06 02:23:37;;;;;;;36.50;21.33;;;;;;;6.54;100.00;99256.59;5070995;28;20044;-45
2024/01/06 02:26:06;;;;;;;38.00;21.70;;;;;;;6.52;100.00;99250.53;5070976;28;20044;-48
2024/01/06 02:28:34;;;;;;;40.42;22.00;;;;;;;6.60;100.00;99243.00;5071106;28;20134;-46
2024/01/06 02:31:02;;;;;;;41.03;23.17;;;;;;;6.47;100.00;99252.63;5070950;28;20076;-46
2024/01/06 02:33:31;;;;;;;41.13;21.70;;;;;;;6.60;100.00;99248.28;5070913;28;20055;-47
2024/01/06 02:35:59;;;;;;;39.05;21.70;;;;;;;6.66;100.00;99247.94;5070831;28;20048;-46
2024/01/06 02:38:27;;;;;;;37.78;22.25;;;;;;;6.47;100.00;99252.63;5070712;28;20049;-49
2024/01/06 02:40:57;;;;;;;36.95;21.42;;;;;;;6.68;100.00;99246.03;5071080;28;20048;-47
2024/01/06 02:43:25;;;;;;;37.05;21.42;;;;;;;6.72;100.00;99238.75;5071032;28;20056;-47
2024/01/06 02:45:54;;;;;;;36.00;20.98;;;;;;;6.81;100.00;99235.53;5070815;28;20075;-47
2024/01/06 02:48:22;;;;;;;35.47;21.05;;;;;;;6.77;100.00;99229.59;5070753;28;20064;-47
2024/01/06 02:50:50;;;;;;;36.08;21.17;;;;;;;6.80;100.00;99229.38;5070552;28;20098;-48
2024/01/06 02:53:19;;;;;;;34.88;21.52;;;;;;;6.71;100.00;99218.50;5070680;28;20048;-46
2024/01/06 02:55:50;;;;;;;35.85;21.08;;;;;;;6.46;100.00;99221.75;5074010;28;20079;-46
2024/01/06 02:58:20;;;;;;;35.30;21.80;;;;;;;6.48;100.00;99219.88;5075264;28;20135;-48
2024/01/06 03:00:48;;;;;;;33.83;21.25;;;;;;;6.61;100.00;99223.50;5076178;28;20051;-47
2024/01/06 03:03:18;;;;;;;37.50;21.92;;;;;;;6.67;100.00;99216.97;5075883;28;20044;-46
2024/01/06 03:05:48;;;;;;;34.42;21.40;;;;;;;6.62;100.00;99219.91;5075131;28;20117;-54
2024/01/06 03:08:17;;;;;;;37.70;21.88;;;;;;;6.70;100.00;99211.50;5075281;28;20055;-46
2024/01/06 03:10:46;;;;;;;37.25;21.42;;;;;;;6.72;100.00;99213.09;5075023;28;20461;-46
2024/01/06 03:13:14;;;;;;;39.28;21.67;;;;;;;6.84;100.00;99209.69;5075256;28;20461;-45
2024/01/06 03:15:44;;;;;;;37.53;21.80;;;;;;;6.84;100.00;99204.38;5074641;28;20059;-47
2024/01/06 03:18:12;;;;;;;35.20;21.35;;;;;;;6.50;100.00;99202.94;5073876;28;20053;-48
2024/01/06 03:20:41;;;;;;;37.25;21.88;;;;;;;6.51;100.00;99198.50;5074410;28;20139;-47
2024/01/06 03:23:09;;;;;;;35.25;22.27;;;;;;;6.51;100.00;99195.84;5074323;28;20102;-46
2024/01/06 03:25:37;;;;;;;37.80;22.10;;;;;;;6.47;100.00;99183.75;5074230;28;20142;-47
2024/01/06 03:28:06;;;;;;;39.15;21.85;;;;;;;6.58;100.00;99176.84;5074045;28;20056;-46
2024/01/06 03:30:35;;;;;;;36.30;21.35;;;;;;;6.48;100.00;99177.50;5073768;28;20045;-47
2024/01/06 03:33:05;;;;;;;37.88;22.17;;;;;;;6.28;100.00;99186.66;5073614;28;20132;-47
2024/01/06 03:35:33;;;;;;;37.08;22.23;;;;;;;6.58;100.00;99179.50;5074034;28;20044;-47
2024/01/06 03:38:02;;;;;;;35.47;21.88;;;;;;;6.65;100.00;99179.94;5073925;28;20075;-48
2024/01/06 03:40:31;;;;;;;38.20;23.13;;;;;;;6.63;100.00;99183.66;5073813;28;20049;-47
2024/01/06 03:43:00;;;;;;;38.13;22.48;;;;;;;6.61;100.00;99186.41;5073552;28;20055;-47
2024/01/06 03:45:28;;;;;;;33.60;20.98;;;;;;;6.53;100.00;99188.66;5073465;28;20049;-48
2024/01/06 03:47:57;;;;;;;32.53;21.25;;;;;;;6.46;100.00;99192.59;5073662;28;20048;-48
2024/01/06 03:50:26;;;;;;;36.60;22.55;;;;;;;6.44;100.00;99202.44;5073710;28;20044;-46
2024/01/06 03:52:55;;;;;;;36.92;20.80;;;;;;;6.51;100.00;99206.44;5073500;28;20126;-49
2024/01/06 03:55:23;;;;;;;34.40;21.10;;;;;;;6.61;100.00;99202.28;5073484;28;20052;-47
2024/01/06 03:57:50;;;;;;;36.05;20.52;;;;;;;6.47;100.00;99205.78;5073348;28;20101;-47
2024/01/06 04:00:19;;;;;;;34.15;20.20;;;;;;;6.54;100.00;99208.91;5073292;28;20489;-47
2024/01/06 04:02:47;;;;;;;32.50;21.65;;;;;;;6.51;100.00;99211.75;5073166;28;20053;-46
2024/01/06 04:05:16;;;;;;;33.30;21.00;;;;;;;6.71;100.00;99218.50;5072928;28;20048;-47
2024/01/06 04:07:45;;;;;;;34.20;20.90;;;;;;;6.86;100.00;99223.72;5072911;28;20562;-47
2024/01/06 04:10:14;;;;;;;35.25;20.58;;;;;;;6.93;100.00;99215.38;5073214;28;20060;-50
2024/01/06 04:12:42;;;;;;;30.45;19.88;;;;;;;7.04;100.00;99228.81;5071659;28;20044;-47
2024/01/06 04:15:11;;;;;;;32.90;20.65;;;;;;;7.08;100.00;99223.25;5072981;28;20501;-47
2024/01/06 04:17:39;;;;;;;31.55;19.75;;;;;;;7.11;100.00;99228.34;5073007;28;20060;-48
2024/01/06 04:20:11;;;;;;;34.83;20.13;;;;;;;7.16;100.00;99215.66;5072921;28;20075;-48
2024/01/06 04:22:39;;;;;;;31.08;20.13;;;;;;;7.02;100.00;99214.81;5072847;28;20048;-47
2024/01/06 04:25:09;;;;;;;33.45;19.60;;;;;;;7.08;100.00;99212.63;5072949;28;20050;-48
2024/01/06 04:27:37;;;;;;;32.75;20.58;;;;;;;6.85;100.00;99210.53;5073066;28;20090;-48
2024/01/06 04:30:07;;;;;;;29.30;18.63;;;;;;;6.75;100.00;99220.00;5073048;28;20044;-48
2024/01/06 04:32:35;;;;;;;34.05;20.58;;;;;;;6.96;100.00;99228.47;5072830;28;20140;-48
2024/01/06 04:35:04;;;;;;;32.60;20.88;;;;;;;7.01;100.00;99226.38;5072727;28;20508;-49
2024/01/06 04:37:32;;;;;;;37.58;21.02;;;;;;;7.09;100.00;99224.09;5072755;28;20114;-49
2024/01/06 04:40:00;;;;;;;30.92;20.50;;;;;;;7.13;100.00;99221.13;5072746;28;20059;-52
2024/01/06 04:42:30;;;;;;;36.13;19.88;;;;;;;7.15;100.00;99218.41;5072745;28;20044;-48
2024/01/06 04:44:58;;;;;;;34.60;21.55;;;;;;;7.18;100.00;99219.06;5072681;28;20124;-48
2024/01/06 04:47:27;;;;;;;32.60;20.60;;;;;;;7.16;100.00;99217.47;5072410;28;20516;-51
2024/01/06 04:49:55;;;;;;;34.10;20.85;;;;;;;7.21;100.00;99204.75;5072477;28;20098;-48
2024/01/06 04:52:24;;;;;;;33.65;19.77;;;;;;;7.22;100.00;99205.59;5072127;28;20536;-47
2024/01/06 04:54:52;;;;;;;33.72;20.55;;;;;;;7.27;100.00;99204.38;5072632;28;20573;-48
2024/01/06 04:57:21;;;;;;;35.28;19.83;;;;;;;7.23;100.00;99210.81;5072470;28;20048;-50
2024/01/06 04:59:50;;;;;;;31.60;20.05;;;;;;;7.18;100.00;99203.16;5072205;28;20076;-47
2024/01/06 05:02:19;;;;;;;33.92;20.80;;;;;;;7.15;100.00;99207.81;5072201;28;20045;-47
2024/01/06 05:04:47;;;;;;;33.42;20.95;;;;;;;7.09;100.00;99202.88;5071651;28;20456;-47
2024/01/06 05:07:16;;;;;;;33.42;20.40;;;;;;;6.81;100.00;99201.09;5071013;28;20479;-47
2024/01/06 05:09:44;;;;;;;33.35;20.23;;;;;;;6.85;100.00;99197.28;5071495;28;20109;-48
2024/01/06 05:12:13;;;;;;;34.00;21.40;;;;;;;6.95;100.00;99194.91;5071329;28;20059;-49
2024/01/06 05:14:41;;;;;;;32.75;20.42;;;;;;;6.96;100.00;99191.34;5071397;28;20481;-47
2024/01/06 05:17:11;;;;;;;31.42;20.08;;;;;;;7.00;100.00;99188.41;5070418;28;20435;-47
2024/01/06 05:19:39;;;;;;;35.13;20.65;;;;;;;7.03;100.00;99192.63;5071542;28;20092;-49
2024/01/06 05:22:08;;;;;;;33.78;20.33;;;;;;;6.89;100.00;99186.41;5071488;28;20052;-50
2024/01/06 05:24:36;;;;;;;34.70;20.67;;;;;;;7.13;100.00;99183.16;5071202;28;20048;-48
2024/01/06 05:27:05;;;;;;;32.70;20.27;;;;;;;7.16;100.00;99183.00;5071203;28;20470;-48
2024/01/06 05:29:34;;;;;;;32.67;20.27;;;;;;;7.29;100.00;99188.34;5070909;28;20502;-49
2024/01/06 05:32:02;;;;;;;33.95;20.90;;;;;;;7.29;100.00;99189.22;5070940;28;20501;-48
2024/01/06 05:34:32;;;;;;;33.47;20.23;;;;;;;7.23;100.00;99194.03;5071208;28;20076;-51
2024/01/06 05:37:01;;;;;;;33.90;20.98;;;;;;;6.99;100.00;99191.16;5071158;28;20044;-50
2024/01/06 05:39:29;;;;;;;36.00;21.08;;;;;;;6.89;100.00;99194.38;5071164;28;20451;-47
2024/01/06 05:41:57;;;;;;;32.33;19.95;;;;;;;6.91;100.00;99206.66;5071155;28;20140;-48
2024/01/06 05:44:25;;;;;;;34.80;21.08;;;;;;;6.85;100.00;99213.19;5070925;28;20467;-51
2024/01/06 05:46:54;;;;;;;30.63;19.85;;;;;;;6.95;100.00;99205.53;5071128;28;20147;-48
2024/01/06 05:49:23;;;;;;;33.10;20.02;;;;;;;6.87;100.00;99204.22;5070931;28;20056;-48
2024/01/06 05:51:53;;;;;;;39.90;20.85;;;;;;;6.83;100.00;99212.44;5070573;28;20040;-49
2024/01/06 05:54:21;;;;;;;31.25;19.65;;;;;;;6.88;100.00;99226.28;5070828;28;20051;-47
2024/01/06 05:56:50;;;;;;;31.55;18.85;;;;;;;6.92;100.00;99224.28;5070582;28;20040;-47
2024/01/06 05:59:18;;;;;;;32.75;19.50;;;;;;;7.02;100.00;99220.09;5070441;28;20052;-49
2024/01/06 06:01:46;;;;;;;32.15;19.33;;;;;;;7.09;100.00;99234.69;5070722;28;20051;-48
2024/01/06 06:04:15;;;;;;;30.65;19.88;;;;;;;6.82;100.00;99232.78;5070647;28;20045;-49
2024/01/06 06:06:43;;;;;;;33.97;18.35;;;;;;;6.92;100.00;99232.22;5070820;28;20426;-49
2024/01/06 06:09:13;;;;;;;31.75;18.63;;;;;;;7.00;100.00;99224.66;5070180;28;20083;-49
2024/01/06 06:11:42;;;;;;;31.42;18.70;;;;;;;6.87;100.00;99225.41;5070222;28;20052;-49
2024/01/06 06:14:11;;;;;;;31.58;18.67;;;;;;;6.98;100.00;99218.59;5070436;28;20056;-48
2024/01/06 06:16:39;;;;;;;30.02;19.20;;;;;;;6.87;100.00;99222.78;5070155;28;20294;-49
2024/01/06 06:19:08;;;;;;;35.40;20.35;;;;;;;6.83;100.00;99215.94;5070373;28;20051;-48
2024/01/06 06:21:37;;;;;;;31.05;18.90;;;;;;;6.73;100.00;99216.59;5070413;28;20478;-48
2024/01/06 06:24:06;;;;;;;34.67;19.17;;;;;;;6.95;100.00;99221.44;5070218;28;20052;-48
2024/01/06 06:26:36;;;;;;;31.58;19.67;;;;;;;6.88;100.00;99218.31;5070043;28;20055;-48
2024/01/06 06:29:07;;;;;;;29.38;18.33;;;;;;;6.73;100.00;99224.53;5070543;28;20080;-49
2024/01/06 06:31:36;;;;;;;32.88;20.23;;;;;;;6.79;100.00;99232.97;5074394;28;20049;-46
2024/01/06 06:34:04;;;;;;;33.63;19.55;;;;;;;6.80;100.00;99225.88;5074351;28;20147;-50
2024/01/06 06:36:36;;;;;;;30.92;19.30;;;;;;;6.76;100.00;99235.84;5074069;28;20080;-47
2024/01/06 06:39:05;;;;;;;31.33;18.00;;;;;;;6.56;100.00;99239.69;5074029;28;20044;-46
2024/01/06 06:41:33;;;;;;;35.85;19.30;;;;;;;6.69;100.00;99237.13;5074202;28;20087;-47
2024/01/06 06:44:03;;;;;;;33.50;18.88;;;;;;;6.84;100.00;99230.03;5074098;28;20128;-48
2024/01/06 06:46:31;;;;;;;31.27;18.50;;;;;;;6.60;100.00;99227.09;5074158;28;20040;-49
2024/01/06 06:48:59;;;;;;;32.70;19.05;;;;;;;6.61;100.00;99223.50;5074124;28;20435;-46
2024/01/06 06:51:29;;;;;;;30.45;18.50;;;;;;;6.46;100.00;99216.44;5074496;28;20368;-49
2024/01/06 06:53:58;;;;;;;32.78;18.80;;;;;;;6.25;100.00;99211.47;5074176;28;20072;-48
2024/01/06 06:56:27;;;;;;;30.92;19.02;;;;;;;6.15;100.00;99204.19;5074485;28;20080;-46
2024/01/06 06:58:55;;;;;;;33.90;19.33;;;;;;;6.24;100.00;99204.50;5074133;28;20394;-47
2024/01/06 07:01:25;;;;;;;31.63;18.67;;;;;;;6.35;100.00;99209.16;5074663;28;20056;-47
2024/01/06 07:03:54;;;;;;;34.30;19.58;;;;;;;6.34;100.00;99219.84;5074610;28;20416;-50
2024/01/06 07:06:23;;;;;;;32.20;19.38;;;;;;;6.42;100.00;99218.44;5073957;28;20122;-49
2024/01/06 07:08:51;;;;;;;34.78;19.80;;;;;;;6.68;100.00;99214.25;5074021;28;20513;-47
2024/01/06 07:11:19;;;;;;;32.28;19.55;;;;;;;6.73;100.00;99212.16;5074086;28;20041;-46
2024/01/06 07:13:47;;;;;;;31.60;18.42;;;;;;;6.71;100.00;99223.78;5074474;28;20048;-46
2024/01/06 07:16:15;;;;;;;29.70;17.55;;;;;;;6.89;100.00;99217.38;5073814;28;20128;-47
2024/01/06 07:18:48;;;;;;;29.52;18.00;;;;;;;6.86;100.00;99223.72;5074480;28;20044;-48
2024/01/06 07:21:17;;;;;;;33.25;17.40;;;;;;;6.49;100.00;99224.25;5074636;28;20044;-47
2024/01/06 07:23:46;;;;;;;32.35;19.48;;;;;;;6.40;100.00;99214.19;5073871;28;20358;-45
2024/01/06 07:26:14;;;;;;;34.08;19.75;;;;;;;6.49;100.00;99211.00;5073179;28;20146;-46
2024/01/06 07:28:42;;;;;;;31.77;18.30;;;;;;;6.55;100.00;99213.25;5073257;28;20052;-51
2024/01/06 07:31:11;;;;;;;28.88;17.90;;;;;;;6.80;100.00;99202.88;5072888;28;20163;-46
2024/01/06 07:33:40;;;;;;;30.48;18.42;;;;;;;6.80;100.00;99197.59;5073339;28;20101;-46
2024/01/06 07:36:10;;;;;;;29.58;17.38;;;;;;;6.79;100.00;99195.03;5073541;28;20114;-46
2024/01/06 07:38:38;;;;;;;27.45;16.73;;;;;;;6.85;100.00;99200.81;5073384;28;20050;-45
2024/01/06 07:41:07;;;;;;;29.95;16.85;;;;;;;6.91;100.00;99220.78;5072296;28;20048;-46
2024/01/06 07:43:36;;;;;;;29.33;17.10;;;;;;;7.05;100.00;99212.84;5072350;28;20052;-45
2024/01/06 07:46:06;;;;;;;30.08;16.83;;;;;;;6.86;100.00;99202.50;5072405;28;20555;-46
2024/01/06 07:48:35;;;;;;;27.00;16.80;;;;;;;6.83;100.00;99207.97;5072554;28;20464;-49
2024/01/06 07:51:04;;;;;;;31.77;16.20;;;;;;;6.68;100.00;99197.50;5072552;28;20048;-46
2024/01/06 07:53:34;;;;;;;26.15;17.00;;;;;;;6.75;100.00;99199.66;5072365;28;20090;-45
2024/01/06 07:56:03;;;;;;;28.95;16.88;;;;;;;6.77;100.00;99208.38;5072400;28;20044;-45
2024/01/06 07:58:32;;;;;;;30.13;17.30;;;;;;;6.79;100.00;99197.69;5072542;28;20500;-46
2024/01/06 08:01:01;;;;;;;26.13;16.25;;;;;;;6.70;100.00;99207.03;5072030;28;20524;-48
2024/01/06 08:03:29;;;;;;;26.23;16.20;;;;;;;6.55;100.00;99208.81;5072421;28;20055;-46
2024/01/06 08:05:58;;;;;;;23.17;14.07;;;;;;;6.42;100.00;99207.00;5072193;28;20688;-47
2024/01/06 08:08:28;;;;;;;26.05;15.18;;;;;;;6.26;100.00;99197.28;5072639;28;20131;-45
2024/01/06 08:10:58;;;;;;;26.73;15.77;;;;;;;6.03;100.00;99211.03;5072047;28;20177;-48
2024/01/06 08:13:26;;;;;;;27.17;15.98;;;;;;;5.99;100.00;99220.13;5072159;28;20140;-48
2024/01/06 08:15:54;;;;;;;28.80;16.67;;;;;;;6.23;100.00;99218.69;5072216;28;20344;-47
2024/01/06 08:18:23;;;;;;;30.90;17.17;;;;;;;6.39;100.00;99229.22;5071756;28;20048;-48
2024/01/06 08:20:52;;;;;;;28.48;16.85;;;;;;;6.38;100.00;99232.81;5072093;28;20055;-46
2024/01/06 08:23:21;;;;;;;205.43;100.68;;;;;;;6.34;100.00;99231.28;5071708;28;20040;-48
2024/01/06 08:25:49;;;;;;;124.25;62.05;;;;;;;6.24;100.00;99222.16;5072171;28;20087;-48
2024/01/06 08:28:19;;;;;;;32.95;17.70;;;;;;;6.07;100.00;99231.09;5072092;28;20040;-47
2024/01/06 08:30:48;;;;;;;27.58;16.67;;;;;;;6.25;100.00;99232.66;5071886;28;20442;-48
2024/01/06 08:33:17;;;;;;;33.83;18.42;;;;;;;6.23;100.00;99226.63;5072056;28;20128;-46
2024/01/06 08:35:46;;;;;;;30.10;18.23;;;;;;;6.06;100.00;99232.03;5071865;28;20407;-47
2024/01/06 08:38:14;;;;;;;30.13;18.00;;;;;;;6.07;100.00;99239.03;5071670;28;20049;-46
2024/01/06 08:40:44;;;;;;;28.60;17.35;;;;;;;6.16;100.00;99229.72;5070907;28;20044;-47
2024/01/06 08:43:12;;;;;;;28.55;16.67;;;;;;;6.01;100.00;99229.66;5071664;28;20045;-46
2024/01/06 08:45:41;;;;;;;29.52;17.23;;;;;;;6.00;100.00;99227.13;5071686;28;20110;-47
2024/01/06 08:48:11;;;;;;;29.05;16.38;;;;;;;6.05;100.00;99235.63;5071663;28;20484;-47
2024/01/06 08:50:40;;;;;;;28.65;16.88;;;;;;;6.06;100.00;99237.34;5071433;28;20414;-46
2024/01/06 08:53:08;;;;;;;28.90;16.83;;;;;;;5.99;100.00;99241.28;5070468;28;20458;-49
2024/01/06 08:55:36;;;;;;;28.75;15.98;;;;;;;6.07;100.00;99235.53;5071555;28;20056;-45
2024/01/06 08:58:05;;;;;;;28.35;16.23;;;;;;;6.05;100.00;99240.94;5071291;28;20041;-47
2024/01/06 09:00:33;;;;;;;29.75;16.80;;;;;;;6.06;100.00;99234.69;5071386;28;20044;-45
2024/01/06 09:03:03;;;;;;;28.40;17.30;;;;;;;6.06;100.00;99241.78;5071251;28;20482;-48
2024/01/06 09:05:33;;;;;;;29.77;17.33;;;;;;;6.06;100.00;99236.47;5071655;28;20532;-48
2024/01/06 09:08:03;;;;;;;28.48;17.02;;;;;;;6.19;100.00;99227.75;5071249;28;20059;-47
2024/01/06 09:10:31;;;;;;;32.65;17.30;;;;;;;6.31;100.00;99232.31;5071091;28;20044;-46
2024/01/06 09:13:00;;;;;;;27.88;16.75;;;;;;;6.43;100.00;99228.09;5070869;28;20052;-49
2024/01/06 09:15:28;;;;;;;31.92;16.40;;;;;;;6.46;100.00;99224.41;5070975;28;20591;-48
2024/01/06 09:17:57;;;;;;;25.15;16.25;;;;;;;6.37;100.00;99217.00;5070679;28;20053;-47
2024/01/06 09:20:27;;;;;;;24.83;16.33;;;;;;;6.26;100.00;99215.84;5071023;28;20048;-50
2024/01/06 09:22:55;;;;;;;29.23;16.58;;;;;;;6.28;100.00;99215.78;5071294;28;20055;-50
2024/01/06 09:25:24;;;;;;;25.50;15.52;;;;;;;6.44;100.00;99215.69;5070713;28;20070;-47
2024/01/06 09:27:53;;;;;;;26.63;15.48;;;;;;;6.42;100.00;99207.84;5070760;28;20044;-47
2024/01/06 09:30:24;;;;;;;26.13;15.18;;;;;;;6.50;100.00;99188.84;5070350;28;20234;-47
2024/01/06 09:32:53;;;;;;;25.50;14.77;;;;;;;6.51;100.00;99194.06;5071039;28;20051;-47
2024/01/06 09:35:21;;;;;;;108.45;54.58;;;;;;;6.53;100.00;99199.25;5070529;28;20076;-45
2024/01/06 09:37:50;;;;;;;36.63;20.23;;;;;;;6.54;100.00;99198.31;5070370;28;20044;-46
2024/01/06 09:40:24;;;;;;;33.38;19.45;;;;;;;6.52;100.00;99192.25;5070488;28;20095;-48
2024/01/06 09:42:54;;;;;;;25.58;14.20;;;;;;;6.39;100.00;99192.16;5070222;28;20080;-48
2024/01/06 09:45:23;;;;;;;23.23;14.13;;;;;;;6.42;100.00;99199.03;5070585;28;20097;-48
2024/01/06 09:47:53;;;;;;;24.58;14.65;;;;;;;6.49;100.00;99188.00;5070900;28;20048;-48
2024/01/06 09:50:22;;;;;;;25.15;15.32;;;;;;;6.72;100.00;99183.94;5071024;28;20094;-47
2024/01/06 09:52:56;;;;;;;23.90;14.38;;;;;;;6.76;100.00;99180.19;5070307;28;20485;-47
2024/01/06 09:55:27;;;;;;;26.95;14.00;;;;;;;6.80;100.00;99186.13;5070426;28;20139;-46
2024/01/06 09:57:55;;;;;;;23.17;14.07;;;;;;;6.75;100.00;99189.03;5070317;28;20048;-47
2024/01/06 10:00:24;;;;;;;24.80;14.13;;;;;;;7.07;100.00;99188.88;5070468;28;20049;-47
2024/01/06 10:02:52;;;;;;;26.98;15.20;;;;;;;7.07;100.00;99194.19;5070414;28;20052;-45
2024/01/06 10:05:20;;;;;;;136.40;66.65;;;;;;;7.19;100.00;99193.41;5070676;28;20052;-48
2024/01/06 10:07:49;;;;;;;361.05;171.90;;;;;;;7.34;100.00;99203.06;5070463;28;20044;-46
2024/01/06 10:10:19;;;;;;;32.30;21.25;;;;;;;7.27;100.00;99199.06;5070255;28;20114;-47
2024/01/06 10:12:48;;;;;;;24.35;14.90;;;;;;;7.06;100.00;99200.44;5070434;28;20040;-48
2024/01/06 10:15:16;;;;;;;22.77;13.57;;;;;;;7.14;100.00;99200.78;5070484;28;20511;-49
2024/01/06 10:17:44;;;;;;;24.10;14.30;;;;;;;6.94;100.00;99203.81;5070356;28;20486;-47
2024/01/06 10:20:15;;;;;;;22.35;14.15;;;;;;;6.77;100.00;99197.78;5070219;28;20053;-47
2024/01/06 10:22:44;;;;;;;22.35;13.60;;;;;;;6.59;100.00;99198.91;5070835;28;20044;-48
2024/01/06 10:25:13;;;;;;;25.92;14.60;;;;;;;6.66;100.00;99199.34;5070555;28;20083;-48
2024/01/06 10:27:43;;;;;;;24.42;14.88;;;;;;;6.71;100.00;99195.50;5070770;28;20151;-46
2024/01/06 10:30:14;;;;;;;22.63;14.93;;;;;;;6.81;100.00;99198.44;5070488;28;20044;-47
2024/01/06 10:32:43;;;;;;;26.65;15.90;;;;;;;6.89;100.00;99194.38;5070485;28;20048;-48
2024/01/06 10:35:11;;;;;;;28.48;15.10;;;;;;;6.71;100.00;99192.84;5070013;28;20052;-47
2024/01/06 10:37:43;;;;;;;27.77;15.65;;;;;;;6.87;100.00;99171.56;5070494;28;20378;-47
2024/01/06 10:40:12;;;;;;;28.27;16.08;;;;;;;6.96;100.00;99170.13;5070342;28;20068;-47
2024/01/06 10:42:43;;;;;;;30.33;17.02;;;;;;;7.02;100.00;99167.09;5070421;28;20473;-46
2024/01/06 10:45:13;;;;;;;26.35;15.57;;;;;;;6.97;100.00;99164.72;5070016;28;20047;-47
2024/01/06 10:47:43;;;;;;;28.98;17.60;;;;;;;7.09;100.00;99155.16;5069892;28;20174;-46
2024/01/06 10:50:13;;;;;;;27.95;16.45;;;;;;;7.17;100.00;99159.03;5070378;28;20041;-47
2024/01/06 10:52:43;;;;;;;32.88;17.95;;;;;;;7.21;100.00;99157.00;5070186;28;20394;-47
2024/01/06 10:55:14;;;;;;;30.38;17.00;;;;;;;7.20;100.00;99154.47;5070691;28;20052;-47
2024/01/06 10:57:44;;;;;;;28.48;16.48;;;;;;;7.02;100.00;99154.66;5070740;28;20398;-50
2024/01/06 11:00:14;;;;;;;28.75;17.02;;;;;;;7.16;100.00;99145.88;5072687;28;20064;-47
2024/01/06 11:02:43;;;;;;;29.48;17.38;;;;;;;7.07;100.00;99151.75;5072877;28;20045;-48
2024/01/06 11:05:13;;;;;;;33.33;17.58;;;;;;;7.07;100.00;99138.50;5072873;28;20473;-48
2024/01/06 11:07:42;;;;;;;30.38;17.85;;;;;;;7.11;100.00;99137.34;5071902;28;20091;-48
2024/01/06 11:10:16;;;;;;;28.10;17.17;;;;;;;7.04;100.00;99128.91;5069943;28;20091;-47
2024/01/06 11:12:46;;;;;;;27.38;16.25;;;;;;;7.02;100.00;99125.50;5070009;28;20446;-50
2024/01/06 11:15:50;;;;;;;134.68;67.75;;;;;;;6.86;100.00;99117.69;5070493;28;20102;-46
2024/01/06 11:18:33;;;;;;;43.70;24.30;;;;;;;7.04;100.00;99114.81;5068886;28;20577;-46
2024/01/06 11:21:18;;;;;;;30.27;17.67;;;;;;;6.71;100.00;99104.53;5073379;28;20049;-48
2024/01/06 11:23:48;;;;;;;29.88;17.70;;;;;;;6.82;100.00;99102.06;5072383;28;20048;-47
2024/01/06 11:26:16;;;;;;;32.03;18.60;;;;;;;6.84;100.00;99093.06;5073603;28;20051;-46